Time;durP1;ratioP1;P1;durP2;ratioP2;P2;SDS_P1;SDS_P2;PMS_P1;PMS_P2;Temp;Humidity;BMP_temperature;BMP_pressure;BME280_temperature;BME280_humidity;BME280_pressure;Samples;Min_cycle;Max_cycle;Signal;HPM_P1;HPM_P2
2023/06/20 00:00:49;;;;;;;14.55;7.30;;;;;;;-144.57;100.00;62443.72;4952742;29;20058;-60
2023/06/20 00:03:16;;;;;;;16.17;6.32;;;;;;;-144.57;100.00;62443.72;4952789;29;20501;-59
2023/06/20 00:05:41;;;;;;;14.93;6.30;;;;;;;-144.57;100.00;62443.72;4952739;29;20055;-60
2023/06/20 00:08:08;;;;;;;14.13;6.30;;;;;;;-144.57;100.00;62443.72;4952717;29;20413;-61
2023/06/20 00:10:33;;;;;;;17.42;7.07;;;;;;;-144.57;100.00;62443.72;4953123;29;20110;-58
2023/06/20 00:12:59;;;;;;;13.20;6.13;;;;;;;-144.57;100.00;62443.72;4955099;28;20086;-60
2023/06/20 00:15:26;;;;;;;15.25;6.07;;;;;;;-144.57;100.00;62443.72;4956419;29;20061;-58
2023/06/20 00:17:53;;;;;;;14.98;6.15;;;;;;;-144.57;100.00;62443.72;4954933;29;20074;-60
2023/06/20 00:20:19;;;;;;;10.35;5.65;;;;;;;-144.57;100.00;62443.72;4956373;29;20108;-59
2023/06/20 00:22:44;;;;;;;16.65;6.28;;;;;;;-144.57;100.00;62443.72;4939083;29;20051;-59
2023/06/20 00:25:10;;;;;;;9.68;5.35;;;;;;;-144.57;100.00;62443.72;4956179;29;20557;-59
2023/06/20 00:27:36;;;;;;;13.57;6.45;;;;;;;-144.57;100.00;62443.72;4955963;29;20426;-59
2023/06/20 00:30:02;;;;;;;13.30;5.50;;;;;;;-144.57;100.00;62443.72;4954459;29;20062;-60
2023/06/20 00:32:29;;;;;;;11.00;5.15;;;;;;;-144.57;100.00;62443.72;4955854;29;20047;-59
2023/06/20 00:34:58;;;;;;;11.02;5.45;;;;;;;-144.57;100.00;62443.72;4954493;29;20086;-60
2023/06/20 00:37:25;;;;;;;12.65;5.53;;;;;;;-144.57;100.00;62443.72;4955733;29;20051;-59
2023/06/20 00:39:51;;;;;;;10.75;5.40;;;;;;;-144.57;100.00;62443.72;4950950;29;20055;-59
2023/06/20 00:42:23;;;;;;;15.18;6.20;;;;;;;-144.57;100.00;62443.72;4951175;29;20044;-60
2023/06/20 00:44:48;;;;;;;10.57;5.40;;;;;;;-144.57;100.00;62443.72;4936792;29;20106;-57
2023/06/20 00:47:18;;;;;;;9.23;5.25;;;;;;;-144.57;100.00;62443.72;4951071;29;20051;-59
2023/06/20 00:49:49;;;;;;;14.20;6.27;;;;;;;-144.57;100.00;62443.72;4936617;29;20135;-59
2023/06/20 00:52:20;;;;;;;9.18;5.20;;;;;;;-144.57;100.00;62443.72;4935074;29;20055;-58
2023/06/20 00:54:47;;;;;;;12.57;5.38;;;;;;;-144.57;100.00;62443.72;4951008;28;20048;-58
2023/06/20 00:57:14;;;;;;;11.05;5.28;;;;;;;-144.57;100.00;62443.72;4936194;29;20059;-60
2023/06/20 00:59:45;;;;;;;9.95;5.35;;;;;;;-144.57;100.00;62443.72;4936535;28;20047;-59
2023/06/20 01:02:12;;;;;;;16.15;5.90;;;;;;;-144.57;100.00;62443.72;4934902;29;20521;-59
2023/06/20 01:04:39;;;;;;;10.38;5.78;;;;;;;-144.57;100.00;62443.72;4934804;29;20052;-58
2023/06/20 01:07:27;;;;;;;12.15;6.32;;;;;;;-144.57;100.00;62443.72;4935952;29;20569;-58
2023/06/20 01:10:08;;;;;;;14.73;5.13;;;;;;;-144.57;100.00;62443.72;4950899;29;20048;-59
2023/06/20 01:12:58;;;;;;;12.38;5.55;;;;;;;-144.57;100.00;62443.72;4950714;29;20047;-59
2023/06/20 01:15:29;;;;;;;11.85;4.97;;;;;;;-144.57;100.00;62443.72;4936353;29;20048;-60
2023/06/20 01:18:18;;;;;;;9.23;5.13;;;;;;;-144.57;100.00;62443.72;4950501;29;20058;-59
2023/06/20 01:20:49;;;;;;;6.45;4.68;;;;;;;-144.57;100.00;62443.72;4934473;29;20051;-59
2023/06/20 01:23:22;;;;;;;12.10;5.07;;;;;;;-144.57;100.00;62443.72;4902116;29;20040;-58
2023/06/20 01:25:59;;;;;;;11.50;6.50;;;;;;;-144.57;100.00;62443.72;4950477;28;20078;-59
2023/06/20 01:28:30;;;;;;;12.80;5.63;;;;;;;-144.57;100.00;62443.72;4918623;29;20047;-59
2023/06/20 01:31:08;;;;;;;12.27;5.13;;;;;;;-144.57;100.00;62443.72;4950344;29;20054;-58
2023/06/20 01:33:53;;;;;;;16.35;5.85;;;;;;;-144.57;100.00;62443.72;4934194;29;20470;-61
2023/06/20 01:36:21;;;;;;;11.20;5.95;;;;;;;-144.57;100.00;62443.72;4934256;29;20199;-58
2023/06/20 01:38:57;;;;;;;14.63;6.88;;;;;;;-144.57;100.00;62443.72;4939065;29;20106;-59
2023/06/20 01:41:24;;;;;;;15.52;6.40;;;;;;;-144.57;100.00;62443.72;4937371;29;20059;-59
2023/06/20 01:43:51;;;;;;;12.02;5.70;;;;;;;-144.57;100.00;62443.72;4954445;29;20121;-59
2023/06/20 01:46:18;;;;;;;12.27;6.40;;;;;;;-144.57;100.00;62443.72;4937487;29;20514;-58
2023/06/20 01:48:45;;;;;;;11.40;6.13;;;;;;;-144.57;100.00;62443.72;4953241;29;20075;-59
2023/06/20 01:51:11;;;;;;;11.82;7.13;;;;;;;-144.57;100.00;62443.72;4937052;29;20043;-59
2023/06/20 01:53:38;;;;;;;15.13;6.60;;;;;;;-144.57;100.00;62443.72;4953062;29;20454;-60
2023/06/20 01:56:04;;;;;;;12.30;6.00;;;;;;;-144.57;100.00;62443.72;4936957;29;20085;-58
2023/06/20 01:58:33;;;;;;;9.93;5.88;;;;;;;-144.57;100.00;62443.72;4952959;29;20528;-58
2023/06/20 02:00:59;;;;;;;14.73;6.28;;;;;;;-144.57;100.00;62443.72;4936928;29;20102;-58
2023/06/20 02:03:27;;;;;;;9.40;5.32;;;;;;;-144.57;100.00;62443.72;4953162;29;20071;-59
2023/06/20 02:05:55;;;;;;;10.57;4.47;;;;;;;-144.57;100.00;62443.72;4920978;29;20065;-59
2023/06/20 02:08:22;;;;;;;7.25;4.82;;;;;;;-144.57;100.00;62443.72;4936837;29;20127;-59
2023/06/20 02:10:49;;;;;;;11.85;4.72;;;;;;;-144.57;100.00;62443.72;4952776;28;20473;-58
2023/06/20 02:13:15;;;;;;;7.47;3.75;;;;;;;-144.57;100.00;62443.72;4920912;29;20051;-60
2023/06/20 02:15:41;;;;;;;10.88;5.30;;;;;;;-144.57;100.00;62443.72;4952696;29;20051;-59
2023/06/20 02:18:07;;;;;;;8.45;4.65;;;;;;;-144.57;100.00;62443.72;4952659;29;20047;-61
2023/06/20 02:20:34;;;;;;;6.93;3.92;;;;;;;-144.57;100.00;62443.72;4952826;29;20043;-58
2023/06/20 02:23:01;;;;;;;7.57;4.28;;;;;;;-144.57;100.00;62443.72;4953781;29;20079;-60
2023/06/20 02:25:29;;;;;;;6.22;3.70;;;;;;;-144.57;100.00;62443.72;4954134;29;20078;-60
2023/06/20 02:27:56;;;;;;;8.88;4.82;;;;;;;-144.57;100.00;62443.72;4952561;28;20540;-58
2023/06/20 02:30:24;;;;;;;9.88;4.35;;;;;;;-144.57;100.00;62443.72;4936629;29;20047;-59
2023/06/20 02:32:52;;;;;;;5.88;4.57;;;;;;;-144.57;100.00;62443.72;4936508;29;20051;-58
2023/06/20 02:35:19;;;;;;;8.32;4.28;;;;;;;-144.57;100.00;62443.72;4953701;28;20050;-58
2023/06/20 02:37:47;;;;;;;10.45;5.10;;;;;;;-144.57;100.00;62443.72;4952657;28;20062;-60
2023/06/20 02:40:13;;;;;;;6.82;4.57;;;;;;;-144.57;100.00;62443.72;4948739;29;20115;-60
2023/06/20 02:42:38;;;;;;;9.10;4.53;;;;;;;-144.57;100.00;62443.72;4934276;29;20048;-61
2023/06/20 02:45:05;;;;;;;6.38;3.90;;;;;;;-144.57;100.00;62443.72;4948486;28;20044;-58
2023/06/20 02:47:40;;;;;;;7.47;3.83;;;;;;;-144.57;100.00;62443.72;4933333;29;20071;-59
2023/06/20 02:50:19;;;;;;;7.82;4.25;;;;;;;-144.57;100.00;62443.72;4948850;29;20046;-59
2023/06/20 02:52:49;;;;;;;9.95;5.45;;;;;;;-144.57;100.00;62443.72;4948976;28;20131;-59
2023/06/20 02:55:38;;;;;;;12.25;4.40;;;;;;;-144.57;100.00;62443.72;4948946;29;20055;-60
2023/06/20 02:58:13;;;;;;;6.07;4.05;;;;;;;-144.57;100.00;62443.72;4933020;29;20106;-59
2023/06/20 03:00:41;;;;;;;10.38;4.68;;;;;;;-144.57;100.00;62443.72;4949059;28;20494;-60
2023/06/20 03:03:13;;;;;;;9.30;4.82;;;;;;;-144.57;100.00;62443.72;4901300;29;20040;-59
2023/06/20 03:05:43;;;;;;;13.82;4.63;;;;;;;-144.57;100.00;62443.72;4948971;29;20458;-59
2023/06/20 03:08:13;;;;;;;10.82;5.20;;;;;;;-144.57;100.00;62443.72;4932804;29;20190;-58
2023/06/20 03:10:40;;;;;;;12.02;5.07;;;;;;;-144.57;100.00;62443.72;4948971;29;20078;-58
2023/06/20 03:13:06;;;;;;;9.65;4.40;;;;;;;-144.57;100.00;62443.72;4948717;29;20055;-59
2023/06/20 03:15:32;;;;;;;10.30;4.95;;;;;;;-144.57;100.00;62443.72;4932739;29;20059;-59
2023/06/20 03:18:00;;;;;;;9.30;4.70;;;;;;;-144.57;100.00;62443.72;4948618;29;20066;-60
2023/06/20 03:20:30;;;;;;;9.38;4.47;;;;;;;-144.57;100.00;62443.72;4948885;28;20326;-59
2023/06/20 03:22:57;;;;;;;6.38;4.20;;;;;;;-144.57;100.00;62443.72;4948671;29;20055;-58
2023/06/20 03:25:23;;;;;;;10.07;4.68;;;;;;;-144.57;100.00;62443.72;4948774;29;20055;-60
2023/06/20 03:27:48;;;;;;;11.40;4.43;;;;;;;-144.57;100.00;62443.72;4932683;29;20058;-61
2023/06/20 03:30:15;;;;;;;7.57;4.60;;;;;;;-144.57;100.00;62443.72;4948715;29;20047;-59
2023/06/20 03:32:46;;;;;;;6.40;4.57;;;;;;;-144.57;100.00;62443.72;4948686;29;20046;-59
2023/06/20 03:35:12;;;;;;;8.65;4.60;;;;;;;-144.57;100.00;62443.72;4932600;29;20502;-59
2023/06/20 03:37:37;;;;;;;9.38;4.45;;;;;;;-144.57;100.00;62443.72;4932552;29;20059;-62
2023/06/20 03:40:05;;;;;;;8.02;4.25;;;;;;;-144.57;100.00;62443.72;4947286;29;20407;-58
2023/06/20 03:42:33;;;;;;;6.68;4.43;;;;;;;-144.57;100.00;62443.72;4951577;29;20098;-59
2023/06/20 03:44:59;;;;;;;9.52;4.45;;;;;;;-144.57;100.00;62443.72;4951680;28;20087;-59
2023/06/20 03:47:25;;;;;;;8.30;4.15;;;;;;;-144.57;100.00;62443.72;4937433;29;20055;-60
2023/06/20 03:49:52;;;;;;;9.57;5.40;;;;;;;-144.57;100.00;62443.72;4939071;29;20043;-59
2023/06/20 03:52:19;;;;;;;8.98;5.55;;;;;;;-144.57;100.00;62443.72;4955268;28;20110;-59
2023/06/20 03:54:45;;;;;;;9.00;5.00;;;;;;;-144.57;100.00;62443.72;4954934;29;20051;-60
2023/06/20 03:57:11;;;;;;;9.95;4.65;;;;;;;-144.57;100.00;62443.72;4923293;29;20493;-60
2023/06/20 03:59:36;;;;;;;10.68;4.70;;;;;;;-144.57;100.00;62443.72;4939108;29;20395;-60
2023/06/20 04:02:04;;;;;;;11.88;5.00;;;;;;;-144.57;100.00;62443.72;4956219;29;20596;-60
2023/06/20 04:04:29;;;;;;;8.55;4.70;;;;;;;-144.57;100.00;62443.72;4954883;29;20097;-60
2023/06/20 04:06:55;;;;;;;8.23;4.57;;;;;;;-144.57;100.00;62443.72;4954796;28;20533;-60
2023/06/20 04:09:25;;;;;;;6.57;4.30;;;;;;;-144.57;100.00;62443.72;4938772;29;20061;-59
2023/06/20 04:11:51;;;;;;;9.68;4.63;;;;;;;-144.57;100.00;62443.72;4954885;29;20406;-60
2023/06/20 04:14:17;;;;;;;11.93;7.28;;;;;;;-144.57;100.00;62443.72;4954711;28;20079;-59
2023/06/20 04:16:44;;;;;;;9.63;5.28;;;;;;;-144.57;100.00;62443.72;4938751;29;20076;-59
2023/06/20 04:19:10;;;;;;;14.23;4.80;;;;;;;-144.57;100.00;62443.72;4938868;29;20379;-60
2023/06/20 04:21:36;;;;;;;7.03;4.50;;;;;;;-144.57;100.00;62443.72;4954767;29;20069;-61
2023/06/20 04:24:02;;;;;;;7.78;4.30;;;;;;;-144.57;100.00;62443.72;4954694;28;20047;-60
2023/06/20 04:26:29;;;;;;;7.53;3.92;;;;;;;-144.57;100.00;62443.72;4938755;29;20200;-60
2023/06/20 04:28:56;;;;;;;7.00;4.03;;;;;;;-144.57;100.00;62443.72;4954320;29;20047;-60
2023/06/20 04:31:22;;;;;;;11.55;4.40;;;;;;;-144.57;100.00;62443.72;4954245;29;20415;-60
2023/06/20 04:33:48;;;;;;;5.82;3.63;;;;;;;-144.57;100.00;62443.72;4954294;28;20050;-60
2023/06/20 04:36:14;;;;;;;7.07;4.03;;;;;;;-144.57;100.00;62443.72;4955494;29;20047;-61
2023/06/20 04:38:42;;;;;;;10.50;4.47;;;;;;;-144.57;100.00;62443.72;4938234;29;20055;-60
2023/06/20 04:41:09;;;;;;;6.90;3.80;;;;;;;-144.57;100.00;62443.72;4954010;29;20062;-59
2023/06/20 04:43:35;;;;;;;5.38;3.72;;;;;;;-144.57;100.00;62443.72;4954174;28;20488;-59
2023/06/20 04:46:02;;;;;;;7.10;4.00;;;;;;;-144.57;100.00;62443.72;4937959;29;20532;-60
2023/06/20 04:48:29;;;;;;;4.38;3.72;;;;;;;-144.57;100.00;62443.72;4953885;29;20063;-61
2023/06/20 04:50:57;;;;;;;7.82;3.88;;;;;;;-144.57;100.00;62443.72;4953766;28;20122;-60
2023/06/20 04:53:25;;;;;;;7.15;3.60;;;;;;;-144.57;100.00;62443.72;4953935;29;20051;-61
2023/06/20 04:55:52;;;;;;;4.22;3.40;;;;;;;-144.57;100.00;62443.72;4938071;29;20070;-59
2023/06/20 04:58:19;;;;;;;5.38;3.42;;;;;;;-144.57;100.00;62443.72;4937980;29;20402;-60
2023/06/20 05:00:44;;;;;;;6.28;3.80;;;;;;;-144.57;100.00;62443.72;4937841;29;20051;-60
2023/06/20 05:03:12;;;;;;;7.28;3.15;;;;;;;-144.57;100.00;62443.72;4954085;29;20054;-60
2023/06/20 05:05:40;;;;;;;6.28;3.05;;;;;;;-144.57;100.00;62443.72;4922234;29;20039;-60
2023/06/20 05:08:05;;;;;;;3.97;2.95;;;;;;;-144.57;100.00;62443.72;4953532;29;20051;-60
2023/06/20 05:10:31;;;;;;;4.78;3.22;;;;;;;-144.57;100.00;62443.72;4937673;29;20039;-59
2023/06/20 05:12:57;;;;;;;5.00;3.17;;;;;;;-144.57;100.00;62443.72;4954853;29;20130;-60
2023/06/20 05:15:25;;;;;;;6.55;3.28;;;;;;;-144.57;100.00;62443.72;4937562;29;20098;-60
2023/06/20 05:17:52;;;;;;;4.20;3.03;;;;;;;-144.57;100.00;62443.72;4953562;29;20051;-59
2023/06/20 05:20:18;;;;;;;7.05;3.55;;;;;;;-144.57;100.00;62443.72;4955134;29;20043;-59
2023/06/20 05:22:43;;;;;;;7.75;4.30;;;;;;;-144.57;100.00;62443.72;4954821;29;20051;-61
2023/06/20 05:25:09;;;;;;;5.65;3.28;;;;;;;-144.57;100.00;62443.72;4953656;29;20493;-60
2023/06/20 05:27:35;;;;;;;6.68;3.38;;;;;;;-144.57;100.00;62443.72;4953446;29;20051;-60
2023/06/20 05:30:01;;;;;;;8.73;3.63;;;;;;;-144.57;100.00;62443.72;4954957;29;20090;-60
2023/06/20 05:32:29;;;;;;;10.90;5.18;;;;;;;-144.57;100.00;62443.72;4953674;29;20086;-60
2023/06/20 05:34:55;;;;;;;4.82;3.90;;;;;;;-144.57;100.00;62443.72;4937106;29;20077;-60
2023/06/20 05:37:20;;;;;;;5.65;3.70;;;;;;;-144.57;100.00;62443.72;4954467;29;20146;-61
2023/06/20 05:39:46;;;;;;;6.25;3.33;;;;;;;-144.57;100.00;62443.72;4954669;29;20047;-59
2023/06/20 05:42:12;;;;;;;3.72;2.63;;;;;;;-144.57;100.00;62443.72;4954501;29;20152;-60
2023/06/20 05:44:38;;;;;;;4.50;2.97;;;;;;;-144.57;100.00;62443.72;4937095;29;20042;-61
2023/06/20 05:47:05;;;;;;;6.88;3.25;;;;;;;-144.57;100.00;62443.72;4954144;29;20572;-61
2023/06/20 05:49:31;;;;;;;6.25;2.90;;;;;;;-144.57;100.00;62443.72;4953004;29;20074;-60
2023/06/20 05:51:57;;;;;;;6.25;2.90;;;;;;;-144.57;100.00;62443.72;4952965;29;20094;-61
2023/06/20 05:54:23;;;;;;;6.63;3.28;;;;;;;-144.57;100.00;62443.72;4936789;29;20150;-60
2023/06/20 05:56:52;;;;;;;7.97;3.58;;;;;;;-144.57;100.00;62443.72;4954410;29;20065;-60
2023/06/20 05:59:18;;;;;;;4.00;2.97;;;;;;;-144.57;100.00;62443.72;4954032;29;20035;-59
2023/06/20 06:01:44;;;;;;;7.53;2.72;;;;;;;-144.57;100.00;62443.72;4936525;29;20050;-60
2023/06/20 06:04:10;;;;;;;5.00;2.95;;;;;;;-144.57;100.00;62443.72;4953774;29;20098;-60
2023/06/20 06:06:36;;;;;;;5.15;2.63;;;;;;;-144.57;100.00;62443.72;4953921;28;20047;-60
2023/06/20 06:09:03;;;;;;;7.43;2.70;;;;;;;-144.57;100.00;62443.72;4953614;28;20224;-60
2023/06/20 06:11:29;;;;;;;6.55;2.90;;;;;;;-144.57;100.00;62443.72;4952612;29;20043;-61
2023/06/20 06:13:55;;;;;;;6.00;2.55;;;;;;;-144.57;100.00;62443.72;4953404;29;20498;-60
2023/06/20 06:16:21;;;;;;;3.03;2.45;;;;;;;-144.57;100.00;62443.72;4953530;29;20054;-59
2023/06/20 06:18:47;;;;;;;3.45;2.53;;;;;;;-144.57;100.00;62443.72;4952504;29;20571;-59
2023/06/20 06:21:13;;;;;;;4.35;2.58;;;;;;;-144.57;100.00;62443.72;4953268;29;20055;-60
2023/06/20 06:23:38;;;;;;;6.55;2.30;;;;;;;-144.57;100.00;62443.72;4936688;29;20051;-59
2023/06/20 06:26:04;;;;;;;6.15;2.70;;;;;;;-144.57;100.00;62443.72;4952375;29;20043;-60
2023/06/20 06:28:30;;;;;;;5.90;2.50;;;;;;;-144.57;100.00;62443.72;4953435;29;20046;-60
2023/06/20 06:30:59;;;;;;;4.22;2.78;;;;;;;-144.57;100.00;62443.72;4952205;28;20046;-60
2023/06/20 06:33:26;;;;;;;3.37;2.83;;;;;;;-144.57;100.00;62443.72;4936571;29;20054;-60
2023/06/20 06:35:55;;;;;;;7.78;2.80;;;;;;;-144.57;100.00;62443.72;4936038;29;20397;-60
2023/06/20 06:38:21;;;;;;;11.45;3.30;;;;;;;-144.57;100.00;62443.72;4952213;29;20058;-60
2023/06/20 06:40:47;;;;;;;5.13;2.80;;;;;;;-144.57;100.00;62443.72;4953323;29;20369;-59
2023/06/20 06:43:14;;;;;;;3.20;2.83;;;;;;;-144.57;100.00;62443.72;4953276;29;20035;-59
2023/06/20 06:45:40;;;;;;;5.32;2.95;;;;;;;-144.57;100.00;62443.72;4920368;29;20050;-59
2023/06/20 06:48:06;;;;;;;5.40;2.92;;;;;;;-144.57;100.00;62443.72;4953372;29;20043;-58
2023/06/20 06:50:32;;;;;;;5.53;2.65;;;;;;;-144.57;100.00;62443.72;4952197;29;20109;-59
2023/06/20 06:52:58;;;;;;;4.85;2.47;;;;;;;-144.57;100.00;62443.72;4935913;29;20047;-60
2023/06/20 06:55:23;;;;;;;6.55;2.65;;;;;;;-144.57;100.00;62443.72;4935979;29;20541;-60
2023/06/20 06:57:49;;;;;;;7.80;3.10;;;;;;;-144.57;100.00;62443.72;4953121;29;20066;-60
2023/06/20 07:00:15;;;;;;;5.88;2.80;;;;;;;-144.57;100.00;62443.72;4953361;29;20051;-59
2023/06/20 07:02:43;;;;;;;7.30;3.40;;;;;;;-144.57;100.00;62443.72;4935958;29;20065;-59
2023/06/20 07:05:09;;;;;;;3.88;2.42;;;;;;;-144.57;100.00;62443.72;4953308;29;20086;-60
2023/06/20 07:07:34;;;;;;;2.97;2.50;;;;;;;-144.57;100.00;62443.72;4953070;29;20051;-61
2023/06/20 07:10:00;;;;;;;4.32;2.33;;;;;;;-144.57;100.00;62443.72;4953333;29;20497;-59
2023/06/20 07:12:26;;;;;;;4.35;2.58;;;;;;;-144.57;100.00;62443.72;4952997;29;20188;-61
2023/06/20 07:14:56;;;;;;;6.18;2.60;;;;;;;-144.57;100.00;62443.72;4953040;29;20089;-60
2023/06/20 07:17:25;;;;;;;5.53;2.88;;;;;;;-144.57;100.00;62443.72;4951859;29;20043;-60
2023/06/20 07:19:54;;;;;;;5.40;3.10;;;;;;;-144.57;100.00;62443.72;4953222;29;20051;-62
2023/06/20 07:22:20;;;;;;;5.38;2.83;;;;;;;-144.57;100.00;62443.72;4937461;29;20040;-62
2023/06/20 07:24:46;;;;;;;5.32;2.72;;;;;;;-144.57;100.00;62443.72;4957164;29;20074;-60
2023/06/20 07:27:11;;;;;;;3.90;2.40;;;;;;;-144.57;100.00;62443.72;4956877;29;20081;-61
2023/06/20 07:29:37;;;;;;;4.32;2.92;;;;;;;-144.57;100.00;62443.72;4956987;29;20090;-60
2023/06/20 07:32:03;;;;;;;5.05;2.70;;;;;;;-144.57;100.00;62443.72;4939324;29;20055;-60
2023/06/20 07:34:29;;;;;;;2.90;2.60;;;;;;;-144.57;100.00;62443.72;4956806;29;20137;-61
2023/06/20 07:36:54;;;;;;;6.20;2.88;;;;;;;-144.57;100.00;62443.72;4956710;29;20117;-60
2023/06/20 07:39:20;;;;;;;3.65;2.67;;;;;;;-144.57;100.00;62443.72;4956891;29;20043;-59
2023/06/20 07:41:45;;;;;;;6.30;2.88;;;;;;;-144.57;100.00;62443.72;4956424;29;20055;-61
2023/06/20 07:44:11;;;;;;;6.13;3.00;;;;;;;-144.57;100.00;62443.72;4956864;28;20074;-60
2023/06/20 07:46:40;;;;;;;6.80;3.20;;;;;;;-144.57;100.00;62443.72;4956512;29;20054;-61
2023/06/20 07:49:06;;;;;;;6.88;2.65;;;;;;;-144.57;100.00;62443.72;4956502;29;20473;-60
2023/06/20 07:51:33;;;;;;;11.38;3.28;;;;;;;-144.57;100.00;62443.72;4956411;29;20058;-62
2023/06/20 07:54:05;;;;;;;7.72;3.78;;;;;;;-144.57;100.00;62443.72;4955065;29;20566;-60
2023/06/20 07:56:31;;;;;;;4.90;2.88;;;;;;;-144.57;100.00;62443.72;4956346;29;20085;-60
2023/06/20 07:58:57;;;;;;;5.53;3.05;;;;;;;-144.57;100.00;62443.72;4956510;29;20071;-62
2023/06/20 08:01:22;;;;;;;6.80;3.08;;;;;;;-144.57;100.00;62443.72;4939226;29;20043;-60
2023/06/20 08:03:48;;;;;;;6.20;3.20;;;;;;;-144.57;100.00;62443.72;4956189;29;20089;-60
2023/06/20 08:06:14;;;;;;;5.03;3.17;;;;;;;-144.57;100.00;62443.72;4922996;29;20054;-60
2023/06/20 08:08:41;;;;;;;6.03;2.97;;;;;;;-144.57;100.00;62443.72;4956110;29;20078;-61
2023/06/20 08:11:07;;;;;;;3.92;3.05;;;;;;;-144.57;100.00;62443.72;4956063;29;20055;-58
2023/06/20 08:13:33;;;;;;;5.55;3.00;;;;;;;-144.57;100.00;62443.72;4956031;29;20055;-60
2023/06/20 08:15:58;;;;;;;5.68;3.22;;;;;;;-144.57;100.00;62443.72;4938480;29;20054;-60
2023/06/20 08:18:24;;;;;;;3.67;2.83;;;;;;;-144.57;100.00;62443.72;4955610;29;20529;-60
2023/06/20 08:20:50;;;;;;;5.28;3.10;;;;;;;-144.57;100.00;62443.72;4955511;29;20039;-60
2023/06/20 08:23:25;;;;;;;5.30;2.92;;;;;;;-144.57;100.00;62443.72;4955653;29;20043;-61
2023/06/20 08:25:57;;;;;;;4.00;2.72;;;;;;;-144.57;100.00;62443.72;4954439;28;20051;-60
2023/06/20 08:28:24;;;;;;;4.53;2.80;;;;;;;-144.57;100.00;62443.72;4955806;29;20461;-60
2023/06/20 08:30:50;;;;;;;4.13;2.88;;;;;;;-144.57;100.00;62443.72;4938386;29;20556;-60
2023/06/20 08:33:16;;;;;;;4.20;2.80;;;;;;;-144.57;100.00;62443.72;4955203;28;20121;-61
2023/06/20 08:35:42;;;;;;;3.70;2.80;;;;;;;-144.57;100.00;62443.72;4938151;29;20199;-59
2023/06/20 08:38:09;;;;;;;5.13;2.88;;;;;;;-144.57;100.00;62443.72;4954386;28;20047;-61
2023/06/20 08:40:34;;;;;;;3.38;2.92;;;;;;;-144.57;100.00;62443.72;4955778;29;20043;-61
2023/06/20 08:43:00;;;;;;;4.20;3.10;;;;;;;-144.57;100.00;62443.72;4951052;29;20199;-59
2023/06/20 08:45:27;;;;;;;3.58;2.85;;;;;;;-144.57;100.00;62443.72;4951034;29;20092;-62
2023/06/20 08:47:59;;;;;;;5.18;2.80;;;;;;;-144.57;100.00;62443.72;4935073;29;20071;-59
2023/06/20 08:50:28;;;;;;;6.70;3.10;;;;;;;-144.57;100.00;62443.72;4951172;29;20509;-60
2023/06/20 08:52:57;;;;;;;7.00;2.90;;;;;;;-144.57;100.00;62443.72;4936378;29;20101;-59
2023/06/20 08:55:23;;;;;;;6.82;3.65;;;;;;;-144.57;100.00;62443.72;4934987;29;20059;-60
2023/06/20 08:57:51;;;;;;;4.47;3.20;;;;;;;-144.57;100.00;62443.72;4936359;29;20048;-62
2023/06/20 09:00:18;;;;;;;3.80;2.88;;;;;;;-144.57;100.00;62443.72;4936342;29;20044;-60
2023/06/20 09:02:43;;;;;;;6.32;3.58;;;;;;;-144.57;100.00;62443.72;4934798;29;20099;-60
2023/06/20 09:05:09;;;;;;;7.13;3.28;;;;;;;-144.57;100.00;62443.72;4950753;29;20447;-60
2023/06/20 09:07:37;;;;;;;4.75;3.35;;;;;;;-144.57;100.00;62443.72;4934823;29;20055;-61
2023/06/20 09:10:07;;;;;;;5.32;3.10;;;;;;;-144.57;100.00;62443.72;4934704;29;20469;-59
2023/06/20 09:12:50;;;;;;;4.63;2.90;;;;;;;-144.57;100.00;62443.72;4935823;29;20058;-60
2023/06/20 09:15:20;;;;;;;4.28;3.05;;;;;;;-144.57;100.00;62443.72;4936004;28;20055;-61
2023/06/20 09:17:49;;;;;;;;;;;;;;;-144.57;100.00;62443.72;4936494;29;20047;-61
2023/06/20 09:20:14;;;;;;;4.60;2.97;;;;;;;-144.57;100.00;62443.72;4935937;29;20373;-60
2023/06/20 09:22:41;;;;;;;4.85;2.90;;;;;;;-144.57;100.00;62443.72;4935412;29;20048;-61
2023/06/20 09:25:08;;;;;;;4.22;3.25;;;;;;;-144.57;100.00;62443.72;4934192;29;20044;-61
2023/06/20 09:27:39;;;;;;;9.45;3.00;;;;;;;-144.57;100.00;62443.72;4935579;29;20052;-59
2023/06/20 09:30:06;;;;;;;9.68;3.03;;;;;;;-144.57;100.00;62443.72;4934262;29;20051;-60
2023/06/20 09:32:36;;;;;;;5.50;3.53;;;;;;;-144.57;100.00;62443.72;4935236;29;20051;-61
2023/06/20 09:35:03;;;;;;;4.22;2.80;;;;;;;-144.57;100.00;62443.72;4935494;29;20466;-60
2023/06/20 09:37:39;;;;;;;3.88;2.72;;;;;;;-144.57;100.00;62443.72;4950123;29;20094;-61
2023/06/20 09:40:10;;;;;;;4.38;3.05;;;;;;;-144.57;100.00;62443.72;4935570;29;20126;-60
2023/06/20 09:42:37;;;;;;;4.93;3.10;;;;;;;-144.57;100.00;62443.72;4949266;29;20070;-60
2023/06/20 09:45:03;;;;;;;3.92;2.70;;;;;;;-144.57;100.00;62443.72;4953813;28;20055;-59
2023/06/20 09:47:29;;;;;;;7.65;4.10;;;;;;;-144.57;100.00;62443.72;4954349;29;20039;-60
2023/06/20 09:49:58;;;;;;;6.63;3.65;;;;;;;-144.57;100.00;62443.72;4936956;29;20047;-59
2023/06/20 09:52:51;;;;;;;9.77;3.20;;;;;;;-144.57;100.00;62443.72;4937656;29;20134;-60
2023/06/20 09:55:18;;;;;;;6.10;2.90;;;;;;;-144.57;100.00;62443.72;4936869;29;20042;-61
2023/06/20 09:57:53;;;;;;;3.72;2.90;;;;;;;-144.57;100.00;62443.72;4921239;29;20513;-61
2023/06/20 10:00:19;;;;;;;5.15;3.10;;;;;;;-144.57;100.00;62443.72;4954378;29;20047;-60
2023/06/20 10:02:49;;;;;;;5.15;2.92;;;;;;;-144.57;100.00;62443.72;4936861;29;20047;-60
2023/06/20 10:05:16;;;;;;;5.57;3.47;;;;;;;-144.57;100.00;62443.72;4954292;29;20527;-59
2023/06/20 10:07:44;;;;;;;8.77;3.80;;;;;;;-144.57;100.00;62443.72;4954182;29;20054;-61
2023/06/20 10:10:10;;;;;;;8.15;3.47;;;;;;;-144.57;100.00;62443.72;4936887;29;20049;-60
2023/06/20 10:12:38;;;;;;;5.35;3.58;;;;;;;-144.57;100.00;62443.72;4937012;29;20089;-61
2023/06/20 10:15:05;;;;;;;5.15;3.20;;;;;;;-144.57;100.00;62443.72;4952709;29;20485;-61
2023/06/20 10:17:35;;;;;;;8.88;3.75;;;;;;;-144.57;100.00;62443.72;4953758;29;20047;-62
2023/06/20 10:20:04;;;;;;;8.98;3.40;;;;;;;-144.57;100.00;62443.72;4954012;29;20039;-60
2023/06/20 10:22:35;;;;;;;5.55;3.63;;;;;;;-144.57;100.00;62443.72;4953553;29;20051;-60
2023/06/20 10:25:20;;;;;;;6.55;3.83;;;;;;;-144.57;100.00;62443.72;4953757;29;20477;-59
2023/06/20 10:27:57;;;;;;;4.80;3.42;;;;;;;-144.57;100.00;62443.72;4953609;29;20521;-59
2023/06/20 10:30:50;;;;;;;3.88;3.50;;;;;;;-144.57;100.00;62443.72;4953855;29;20424;-61
2023/06/20 10:33:26;;;;;;;4.47;3.30;;;;;;;-144.57;100.00;62443.72;4953489;29;20051;-60
2023/06/20 10:36:03;;;;;;;3.75;3.20;;;;;;;-144.57;100.00;62443.72;4952023;29;20047;-61
2023/06/20 10:38:30;;;;;;;6.10;3.60;;;;;;;-144.57;100.00;62443.72;4953561;29;20054;-61
2023/06/20 10:41:06;;;;;;;3.53;3.20;;;;;;;-144.57;100.00;62443.72;4936455;29;20050;-60
2023/06/20 10:43:50;;;;;;;7.13;4.20;;;;;;;-144.57;100.00;62443.72;4915097;29;20040;-63
2023/06/20 10:46:16;;;;;;;7.05;3.50;;;;;;;-144.57;100.00;62443.72;4898560;29;20469;-61
2023/06/20 10:48:42;;;;;;;7.85;4.20;;;;;;;-144.57;100.00;62443.72;4915228;29;20044;-60
2023/06/20 10:51:09;;;;;;;13.23;4.47;;;;;;;-144.57;100.00;62443.72;4915107;29;20051;-60
2023/06/20 10:53:35;;;;;;;7.63;4.25;;;;;;;-144.57;100.00;62443.72;4915342;29;20100;-61
2023/06/20 10:56:00;;;;;;;11.00;3.88;;;;;;;-144.57;100.00;62443.72;4929257;29;20054;-61
2023/06/20 10:58:26;;;;;;;7.70;4.32;;;;;;;-144.57;100.00;62443.72;4929474;29;20467;-60
2023/06/20 11:00:53;;;;;;;8.13;4.05;;;;;;;-144.57;100.00;62443.72;4914908;29;20451;-58
2023/06/20 11:03:21;;;;;;;5.70;3.75;;;;;;;-144.57;100.00;62443.72;4929659;29;20099;-61
2023/06/20 11:05:51;;;;;;;7.25;3.75;;;;;;;-144.57;100.00;62443.72;4915122;29;20526;-60
2023/06/20 11:08:27;;;;;;;4.63;3.10;;;;;;;-144.57;100.00;62443.72;4914915;29;20048;-61
2023/06/20 11:10:53;;;;;;;6.35;3.58;;;;;;;-144.57;100.00;62443.72;4913710;29;20550;-61